Time;durP1;ratioP1;P1;durP2;ratioP2;P2;SDS_P1;SDS_P2;PMS_P1;PMS_P2;Temp;Humidity;BMP_temperature;BMP_pressure;BME280_temperature;BME280_humidity;BME280_pressure;Samples;Min_cycle;Max_cycle;Signal;HPM_P1;HPM_P2
2023/06/19 00:00:17;;;;;;;8.73;7.95;;;;;;;24.68;37.28;95287.63;6152835;23;20181;-88
2023/06/19 00:02:45;;;;;;;8.52;7.82;;;;;;;24.57;37.80;95289.56;6151968;23;20202;-88
2023/06/19 00:05:13;;;;;;;10.38;8.30;;;;;;;24.50;38.02;95291.69;6152533;23;20217;-88
2023/06/19 00:07:47;;;;;;;11.75;8.27;;;;;;;24.50;37.87;95283.00;6151475;23;20235;-89
2023/06/19 00:10:13;;;;;;;8.95;8.10;;;;;;;24.46;37.84;95282.75;6152014;23;20170;-89
2023/06/19 00:12:40;;;;;;;9.45;8.65;;;;;;;24.43;38.15;95280.69;6152343;23;20202;-89
2023/06/19 00:15:20;;;;;;;9.77;8.88;;;;;;;24.48;38.14;95271.94;6152450;23;20195;-89
2023/06/19 00:17:48;;;;;;;8.48;7.78;;;;;;;24.39;38.34;95279.66;6151795;23;20559;-88
2023/06/19 00:20:14;;;;;;;8.82;8.07;;;;;;;24.21;38.71;95280.22;6151812;23;20174;-88
2023/06/19 00:22:41;;;;;;;8.43;7.72;;;;;;;24.19;38.73;95272.59;6152309;23;20254;-88
2023/06/19 00:25:11;;;;;;;9.05;8.30;;;;;;;24.20;39.00;95278.66;6152789;23;20203;-88
2023/06/19 00:27:42;;;;;;;8.32;7.68;;;;;;;24.24;38.60;95279.72;6151768;23;20171;-88
2023/06/19 00:30:11;;;;;;;8.70;7.82;;;;;;;24.27;38.52;95284.41;6152589;23;20214;-88
2023/06/19 00:32:46;;;;;;;8.50;7.65;;;;;;;24.28;38.98;95281.53;6152940;23;20202;-88
2023/06/19 00:35:14;;;;;;;8.75;7.75;;;;;;;24.32;38.56;95285.19;6153058;23;20201;-88
2023/06/19 00:37:49;;;;;;;8.48;7.78;;;;;;;24.30;38.84;95283.88;6154263;23;20827;-88
2023/06/19 00:40:27;;;;;;;8.60;7.85;;;;;;;24.31;38.92;95285.47;6153839;23;20258;-89
2023/06/19 00:42:54;;;;;;;8.43;7.72;;;;;;;24.35;38.98;95286.50;6154537;23;20217;-88
2023/06/19 00:45:25;;;;;;;8.57;7.88;;;;;;;24.35;38.79;95287.28;6154553;23;20242;-89
2023/06/19 00:47:52;;;;;;;8.27;7.53;;;;;;;24.37;38.90;95289.66;6154354;23;20167;-88
2023/06/19 00:50:20;;;;;;;8.40;7.60;;;;;;;24.29;39.20;95285.72;6153855;23;20182;-89
2023/06/19 00:52:47;;;;;;;8.40;7.70;;;;;;;24.31;38.97;95290.72;6154078;23;20205;-88
2023/06/19 00:55:19;;;;;;;8.07;7.38;;;;;;;24.35;39.14;95294.41;6154267;23;20201;-88
2023/06/19 00:57:47;;;;;;;8.63;7.82;;;;;;;24.35;39.11;95292.56;6154168;23;20190;-89
2023/06/19 01:00:24;;;;;;;8.65;7.95;;;;;;;24.38;39.69;95294.66;6153525;23;20179;-88
2023/06/19 01:02:50;;;;;;;8.07;7.40;;;;;;;24.44;38.65;95296.19;6154435;23;20615;-89
2023/06/19 01:05:21;;;;;;;8.00;7.40;;;;;;;24.50;38.92;95296.94;6154074;23;20686;-89
2023/06/19 01:07:53;;;;;;;8.30;7.35;;;;;;;24.51;38.81;95297.75;6153611;23;20163;-88
2023/06/19 01:10:25;;;;;;;8.63;7.82;;;;;;;24.56;38.80;95297.72;6154645;23;20169;-88
2023/06/19 01:12:57;;;;;;;8.43;7.32;;;;;;;24.57;38.70;95296.66;6154487;23;20190;-88
2023/06/19 01:15:24;;;;;;;8.40;7.60;;;;;;;24.45;39.18;95300.38;6154612;23;20202;-88
2023/06/19 01:17:51;;;;;;;8.02;7.43;;;;;;;24.40;39.57;95297.81;6154699;23;20179;-88
2023/06/19 01:20:18;;;;;;;8.07;7.28;;;;;;;24.27;39.99;95302.84;6154477;23;20175;-88
2023/06/19 01:22:46;;;;;;;10.07;7.53;;;;;;;24.28;40.39;95301.78;6154429;23;20249;-88
2023/06/19 01:25:22;;;;;;;8.27;7.57;;;;;;;24.24;40.41;95304.19;6154862;23;20187;-89
2023/06/19 01:27:48;;;;;;;8.07;7.47;;;;;;;24.30;40.31;95300.47;6154236;23;20499;-88
2023/06/19 01:30:15;;;;;;;7.90;7.30;;;;;;;24.41;40.10;95307.28;6154295;23;20496;-88
2023/06/19 01:32:54;;;;;;;9.15;7.63;;;;;;;24.49;40.37;95302.47;6153348;23;20299;-88
2023/06/19 01:35:30;;;;;;;7.65;6.95;;;;;;;24.53;40.53;95303.53;6152747;23;20860;-89
2023/06/19 01:38:11;;;;;;;8.52;7.75;;;;;;;24.57;40.29;95301.94;6153293;23;20598;-88
2023/06/19 01:40:45;;;;;;;8.60;7.75;;;;;;;24.54;40.08;95302.47;6152404;23;20182;-89
2023/06/19 01:43:19;;;;;;;8.43;7.70;;;;;;;24.46;41.26;95301.19;6153002;23;20161;-88
2023/06/19 01:45:48;;;;;;;7.90;7.20;;;;;;;24.47;41.21;95296.69;6152303;23;20274;-88
2023/06/19 01:48:15;;;;;;;8.75;7.95;;;;;;;24.53;40.63;95303.53;6153475;23;20179;-88
2023/06/19 01:50:45;;;;;;;8.25;7.53;;;;;;;24.52;41.14;95304.59;6154959;23;20197;-88
2023/06/19 01:53:18;;;;;;;7.88;7.25;;;;;;;24.50;41.53;95299.59;6156735;23;20193;-88
2023/06/19 01:55:48;;;;;;;7.97;7.38;;;;;;;24.47;41.23;95300.13;6154128;23;20190;-88
2023/06/19 01:58:14;;;;;;;7.95;7.35;;;;;;;24.40;41.98;95295.16;6155873;23;20185;-88
2023/06/19 02:00:41;;;;;;;8.35;7.55;;;;;;;24.43;41.93;95296.47;6156167;23;20179;-88
2023/06/19 02:03:07;;;;;;;8.68;7.97;;;;;;;24.49;41.06;95295.38;6155385;23;20648;-88
2023/06/19 02:05:39;;;;;;;8.43;7.65;;;;;;;24.48;41.15;95298.28;6156236;23;20246;-89
2023/06/19 02:08:05;;;;;;;9.15;8.27;;;;;;;24.35;41.67;95297.81;6156026;23;20158;-88
2023/06/19 02:10:33;;;;;;;8.48;7.78;;;;;;;24.41;41.35;95303.84;6155098;23;20174;-88
2023/06/19 02:13:00;;;;;;;8.25;7.55;;;;;;;24.42;41.01;95297.53;6155477;23;20198;-89
2023/06/19 02:15:29;;;;;;;8.70;8.00;;;;;;;24.40;41.01;95294.38;6154485;23;20320;-88
2023/06/19 02:17:56;;;;;;;8.50;7.80;;;;;;;24.42;40.89;95297.53;6155534;23;20202;-88
2023/06/19 02:23:18;;;;;;;8.88;8.00;;;;;;;24.41;40.77;95290.69;6115126;23;20229;-89
2023/06/19 02:25:46;;;;;;;8.70;8.00;;;;;;;24.39;40.61;95293.59;6156276;23;20190;-88
2023/06/19 02:28:12;;;;;;;9.27;8.38;;;;;;;24.45;40.52;95297.75;6156300;23;20262;-88
2023/06/19 02:30:42;;;;;;;8.50;7.78;;;;;;;24.39;40.76;95296.22;6156309;23;20182;-89
2023/06/19 02:33:08;;;;;;;9.15;8.35;;;;;;;24.44;40.94;95295.38;6156033;23;20706;-88
2023/06/19 02:35:35;;;;;;;8.68;7.88;;;;;;;24.43;40.56;95297.25;6152689;23;20281;-88
2023/06/19 02:38:01;;;;;;;8.52;7.82;;;;;;;24.45;40.90;95297.75;6150914;23;20646;-88
2023/06/19 02:40:28;;;;;;;9.10;8.20;;;;;;;24.42;41.04;95302.78;6151069;23;20206;-88
2023/06/19 02:42:55;;;;;;;9.30;8.35;;;;;;;24.38;41.21;95302.53;6150845;23;20180;-88
2023/06/19 02:45:26;;;;;;;9.10;8.30;;;;;;;24.36;41.17;95301.22;6151127;23;20195;-88
2023/06/19 02:47:53;;;;;;;8.70;8.00;;;;;;;24.29;41.36;95301.50;6151509;23;20229;-88
2023/06/19 02:50:19;;;;;;;8.90;8.20;;;;;;;24.29;41.25;95303.34;6151258;23;20174;-88
2023/06/19 02:52:46;;;;;;;9.15;8.35;;;;;;;24.24;41.45;95309.44;6150929;23;20202;-88
2023/06/19 02:55:12;;;;;;;8.50;7.80;;;;;;;24.16;41.46;95304.69;6151168;23;20203;-88
2023/06/19 02:57:49;;;;;;;8.48;7.68;;;;;;;24.07;41.75;95306.28;6151941;23;20264;-87
2023/06/19 03:00:17;;;;;;;8.98;8.07;;;;;;;24.06;41.46;95302.09;6150843;23;20170;-88
2023/06/19 03:02:44;;;;;;;8.27;7.60;;;;;;;24.06;41.88;95292.34;6151383;23;20174;-88
2023/06/19 03:05:14;;;;;;;8.70;8.00;;;;;;;24.08;41.77;95295.50;6150707;23;20253;-88
2023/06/19 03:07:49;;;;;;;9.02;7.72;;;;;;;24.11;41.81;95291.56;6150139;23;20175;-88
2023/06/19 03:10:15;;;;;;;8.77;8.02;;;;;;;24.04;42.62;95298.97;6150599;23;20197;-88
2023/06/19 03:12:42;;;;;;;8.48;7.78;;;;;;;23.97;42.32;95307.13;6149883;23;20199;-88
2023/06/19 03:15:09;;;;;;;10.32;7.57;;;;;;;23.97;42.53;95308.97;6150245;23;20279;-88
2023/06/19 03:17:46;;;;;;;9.30;8.50;;;;;;;23.95;42.96;95313.69;6150965;23;20253;-87
2023/06/19 03:20:13;;;;;;;8.23;7.55;;;;;;;23.91;42.56;95313.44;6151069;23;20246;-88
2023/06/19 03:22:59;;;;;;;8.30;7.63;;;;;;;23.95;42.98;95329.47;6151219;23;20262;-88
2023/06/19 03:25:43;;;;;;;8.48;7.78;;;;;;;23.95;43.13;95324.22;6152007;23;20269;-88
2023/06/19 03:31:05;;;;;;;8.50;7.80;;;;;;;23.93;43.00;95328.97;6150810;23;20216;-88
2023/06/19 03:33:44;;;;;;;8.70;8.00;;;;;;;23.92;43.58;95330.00;6152950;23;20194;-88
2023/06/19 03:36:19;;;;;;;8.40;7.63;;;;;;;23.91;43.61;95329.22;6152781;23;20446;-87
2023/06/19 03:38:50;;;;;;;9.77;8.00;;;;;;;23.94;43.40;95339.22;6152556;23;20178;-88
2023/06/19 03:41:46;;;;;;;8.57;7.78;;;;;;;23.97;43.52;95335.25;6153064;23;20183;-88
2023/06/19 03:44:19;;;;;;;8.65;7.95;;;;;;;23.99;43.03;95343.69;6084085;23;20175;-88
2023/06/19 03:46:50;;;;;;;9.10;8.40;;;;;;;23.90;44.19;95348.69;6150968;23;20190;-89
2023/06/19 03:49:20;;;;;;;9.23;8.02;;;;;;;23.90;43.66;95348.69;6152088;23;20174;-88
2023/06/19 03:51:48;;;;;;;8.68;7.88;;;;;;;23.91;43.75;95352.09;6151792;23;20171;-88
2023/06/19 03:54:15;;;;;;;9.45;8.75;;;;;;;23.94;43.81;95360.25;6152651;23;20203;-88
2023/06/19 03:56:46;;;;;;;8.98;8.10;;;;;;;23.97;44.33;95370.25;6151881;23;20246;-87
2023/06/19 03:59:13;;;;;;;9.32;8.52;;;;;;;23.95;44.42;95363.66;6153710;23;20171;-87
2023/06/19 04:01:40;;;;;;;8.63;7.95;;;;;;;23.91;44.64;95360.00;6152648;23;20175;-87
2023/06/19 04:04:07;;;;;;;8.82;8.13;;;;;;;23.96;44.41;95365.25;6152079;23;20669;-87
2023/06/19 04:06:34;;;;;;;8.40;7.70;;;;;;;23.96;44.76;95370.50;6152042;23;20191;-88
2023/06/19 04:09:01;;;;;;;8.93;8.13;;;;;;;23.92;45.07;95364.19;6153342;23;20179;-87
2023/06/19 04:11:27;;;;;;;9.15;8.45;;;;;;;23.94;44.69;95376.03;6152470;23;20241;-87
2023/06/19 04:13:59;;;;;;;9.55;8.55;;;;;;;23.95;44.83;95363.66;6152585;23;20682;-87
2023/06/19 04:16:25;;;;;;;9.75;8.95;;;;;;;23.91;45.52;95373.13;6152279;23;20211;-88
2023/06/19 04:18:52;;;;;;;10.07;9.27;;;;;;;23.91;44.87;95379.19;6152573;23;20175;-87
2023/06/19 04:21:18;;;;;;;9.75;8.95;;;;;;;23.90;45.27;95379.44;6152186;23;20649;-86
2023/06/19 04:23:46;;;;;;;9.60;8.80;;;;;;;23.92;45.58;95385.25;6151687;23;20175;-86
2023/06/19 04:26:12;;;;;;;8.18;7.47;;;;;;;23.90;45.08;95385.50;6151733;23;20574;-87
2023/06/19 04:28:39;;;;;;;9.18;8.45;;;;;;;23.89;45.58;95386.56;6151842;23;20182;-87
2023/06/19 04:31:06;;;;;;;8.95;8.15;;;;;;;23.92;45.52;95393.91;6151700;23;20229;-87
2023/06/19 04:33:32;;;;;;;9.68;8.50;;;;;;;23.91;45.87;95392.34;6152280;23;20218;-86
2023/06/19 04:35:58;;;;;;;9.05;8.27;;;;;;;23.83;46.39;95395.53;6151183;23;20205;-87
2023/06/19 04:38:25;;;;;;;9.23;8.32;;;;;;;23.82;46.56;95401.81;6151867;23;20179;-87
2023/06/19 04:40:53;;;;;;;9.45;8.63;;;;;;;23.87;46.20;95398.38;6150963;23;20191;-88
2023/06/19 04:43:20;;;;;;;9.35;8.43;;;;;;;23.91;46.65;95399.44;6151734;23;20182;-87
2023/06/19 04:45:46;;;;;;;9.43;8.52;;;;;;;23.86;47.19;95405.47;6151692;23;20202;-87
2023/06/19 04:48:13;;;;;;;8.90;8.10;;;;;;;23.88;47.10;95431.53;6151498;23;20175;-87
2023/06/19 04:50:39;;;;;;;8.93;8.15;;;;;;;23.83;47.76;95431.53;6151642;23;20257;-87
2023/06/19 04:53:06;;;;;;;9.95;8.40;;;;;;;23.81;47.93;95420.50;6149616;23;20194;-87
2023/06/19 04:55:33;;;;;;;8.70;7.93;;;;;;;23.78;48.26;95424.44;6155712;23;20229;-87
2023/06/19 04:58:03;;;;;;;9.02;8.23;;;;;;;23.79;48.58;95433.13;6156338;23;20179;-88
2023/06/19 05:00:34;;;;;;;9.77;8.93;;;;;;;23.68;49.32;95438.34;6157858;23;20565;-88
2023/06/19 05:03:05;;;;;;;9.45;8.52;;;;;;;23.56;49.78;95429.94;6157331;23;20234;-88
2023/06/19 05:05:38;;;;;;;9.15;8.30;;;;;;;23.60;50.65;95441.53;6156430;23;20191;-88
2023/06/19 05:08:14;;;;;;;9.13;8.43;;;;;;;23.68;50.03;95442.81;6154669;23;20167;-88
2023/06/19 05:10:41;;;;;;;9.30;8.50;;;;;;;23.71;50.40;95437.03;6154920;23;20353;-88
2023/06/19 05:13:08;;;;;;;8.82;8.05;;;;;;;23.68;51.41;95445.44;6156770;23;20199;-87
2023/06/19 05:15:37;;;;;;;9.63;8.82;;;;;;;23.67;50.59;95449.13;6156323;23;20191;-87
2023/06/19 05:18:04;;;;;;;9.75;8.77;;;;;;;23.60;51.64;95448.63;6156841;23;20175;-87
2023/06/19 05:20:31;;;;;;;9.30;8.43;;;;;;;23.55;50.69;95445.97;6157089;23;20426;-87
2023/06/19 05:23:00;;;;;;;8.63;7.78;;;;;;;23.55;50.97;95449.38;6156646;23;20177;-88
2023/06/19 05:25:27;;;;;;;8.90;8.10;;;;;;;23.62;51.04;95449.94;6156650;23;20194;-87
2023/06/19 05:27:54;;;;;;;8.20;7.60;;;;;;;23.61;51.16;95445.72;6155937;23;20182;-87
2023/06/19 05:30:21;;;;;;;24.73;22.55;;;;;;;23.66;50.09;95453.63;6156519;23;20182;-87
2023/06/19 05:32:48;;;;;;;17.63;15.93;;;;;;;23.66;49.68;95448.38;6156258;23;20182;-87
2023/06/19 05:35:14;;;;;;;7.95;7.22;;;;;;;23.69;49.26;95452.28;6155583;23;20201;-87
2023/06/19 05:37:43;;;;;;;8.27;7.60;;;;;;;23.78;48.66;95453.34;6154508;23;20781;-88
2023/06/19 05:40:10;;;;;;;7.90;7.15;;;;;;;23.85;48.52;95458.38;6153918;23;20206;-88
2023/06/19 05:42:37;;;;;;;7.53;6.75;;;;;;;23.90;48.14;95466.25;6155869;23;20178;-87
2023/06/19 05:45:07;;;;;;;7.10;6.50;;;;;;;23.97;47.96;95472.81;6155310;23;20199;-87
2023/06/19 05:47:37;;;;;;;8.75;6.88;;;;;;;24.03;47.67;95473.63;6155415;23;20186;-87
2023/06/19 05:50:13;;;;;;;7.32;6.63;;;;;;;24.11;47.36;95473.88;6155977;23;20182;-87
2023/06/19 05:52:43;;;;;;;7.97;6.47;;;;;;;24.16;47.34;95467.81;6154873;23;20273;-87
2023/06/19 05:55:09;;;;;;;7.97;6.68;;;;;;;24.24;47.07;95474.44;6155963;23;20199;-87
2023/06/19 05:57:41;;;;;;;7.00;6.40;;;;;;;24.36;46.82;95481.00;6154393;23;20665;-88
2023/06/19 06:00:17;;;;;;;12.65;11.55;;;;;;;24.42;46.46;95476.50;6155622;23;20171;-87
2023/06/19 06:02:45;;;;;;;8.02;7.28;;;;;;;24.48;46.59;95478.06;6155053;23;20641;-88
2023/06/19 06:05:16;;;;;;;7.43;6.72;;;;;;;24.49;46.02;95486.75;6154516;23;20210;-87
2023/06/19 06:07:45;;;;;;;7.30;6.60;;;;;;;24.45;46.18;95487.28;6153551;23;20595;-87
2023/06/19 06:10:19;;;;;;;7.18;6.53;;;;;;;24.51;46.22;95487.28;6154050;23;20186;-87
2023/06/19 06:12:45;;;;;;;8.75;6.65;;;;;;;24.61;46.20;95495.16;6153935;23;20197;-87
2023/06/19 06:15:12;;;;;;;7.07;6.47;;;;;;;24.62;45.84;95497.53;6154174;23;20194;-87
2023/06/19 06:17:38;;;;;;;7.03;6.28;;;;;;;24.59;45.83;95500.69;6153016;23;20182;-87
2023/06/19 06:20:11;;;;;;;7.90;6.78;;;;;;;24.63;45.65;95496.44;6154248;23;20178;-88
2023/06/19 06:22:38;;;;;;;7.30;6.57;;;;;;;24.68;45.39;95506.19;6154083;23;20211;-88
2023/06/19 06:25:05;;;;;;;7.07;6.43;;;;;;;24.71;45.54;95511.72;6153190;23;20270;-87
2023/06/19 06:27:32;;;;;;;7.63;6.65;;;;;;;24.75;45.65;95507.50;6153862;23;20179;-87
2023/06/19 06:30:01;;;;;;;10.07;7.13;;;;;;;24.89;45.43;95506.94;6153558;23;20174;-88
2023/06/19 06:32:28;;;;;;;8.18;6.72;;;;;;;25.01;45.47;95510.09;6154417;23;20175;-88
2023/06/19 06:34:55;;;;;;;6.90;6.30;;;;;;;25.12;45.36;95512.41;6153601;23;20515;-88
2023/06/19 06:37:23;;;;;;;7.35;6.80;;;;;;;25.17;45.40;95513.47;6154523;23;20179;-87
2023/06/19 06:39:50;;;;;;;6.90;6.20;;;;;;;25.19;44.91;95517.41;6152418;23;20577;-87
2023/06/19 06:42:17;;;;;;;6.72;6.20;;;;;;;25.36;45.30;95522.34;6153872;23;20518;-88
2023/06/19 06:44:51;;;;;;;7.05;5.80;;;;;;;25.46;44.60;95532.81;6151330;23;20174;-88
2023/06/19 06:47:18;;;;;;;6.88;6.15;;;;;;;25.50;44.48;95533.88;6152585;23;20158;-87
2023/06/19 06:49:47;;;;;;;7.03;6.40;;;;;;;25.55;44.49;95533.84;6153246;23;20688;-88
2023/06/19 06:52:16;;;;;;;7.60;6.30;;;;;;;25.61;44.08;95532.75;6152553;23;20204;-88
2023/06/19 06:54:48;;;;;;;6.78;6.00;;;;;;;25.59;44.26;95537.53;6154277;23;20277;-88
2023/06/19 06:57:14;;;;;;;6.25;5.82;;;;;;;25.51;44.23;95546.00;6153868;23;20179;-88
2023/06/19 06:59:41;;;;;;;6.68;6.10;;;;;;;25.43;44.18;95549.19;6153906;23;20190;-87
2023/06/19 07:02:07;;;;;;;6.40;5.90;;;;;;;25.51;44.25;95546.00;6156339;23;20179;-88
2023/06/19 07:04:36;;;;;;;7.05;5.85;;;;;;;25.50;44.55;95554.97;6156341;23;20261;-88
2023/06/19 07:07:04;;;;;;;6.80;6.30;;;;;;;25.57;44.48;95559.94;6155697;23;20188;-88
2023/06/19 07:09:31;;;;;;;6.43;5.88;;;;;;;25.58;44.25;95553.63;6155493;23;20569;-88
2023/06/19 07:12:04;;;;;;;7.18;6.38;;;;;;;25.74;44.64;95553.28;6156326;23;20181;-88
2023/06/19 07:14:33;;;;;;;6.00;5.53;;;;;;;25.81;44.20;95547.69;6155138;23;20186;-88
2023/06/19 07:17:00;;;;;;;6.20;5.70;;;;;;;25.81;44.31;95551.13;6155686;23;20677;-89
2023/06/19 07:19:31;;;;;;;6.15;5.55;;;;;;;26.03;43.89;95552.56;6154954;23;20167;-88
2023/06/19 07:22:05;;;;;;;6.30;5.80;;;;;;;26.19;44.32;95559.31;6155430;23;20182;-88
2023/06/19 07:24:39;;;;;;;6.30;5.80;;;;;;;26.35;43.44;95544.19;6156089;23;20159;-88
2023/06/19 07:27:07;;;;;;;6.53;5.93;;;;;;;26.44;43.75;95553.88;6154822;23;20238;-88
2023/06/19 07:29:34;;;;;;;5.90;5.50;;;;;;;26.41;43.38;95551.78;6154964;23;20181;-89
2023/06/19 07:32:08;;;;;;;6.10;5.45;;;;;;;26.45;43.73;95552.00;6155093;23;20167;-88
2023/06/19 07:34:46;;;;;;;5.85;5.45;;;;;;;26.37;43.54;95549.97;6154095;23;20186;-88
2023/06/19 07:37:18;;;;;;;6.57;5.88;;;;;;;26.35;43.85;95557.41;6154188;23;20638;-88
2023/06/19 07:39:45;;;;;;;5.60;5.20;;;;;;;26.40;43.46;95558.13;6153500;23;20179;-88
2023/06/19 07:42:22;;;;;;;5.50;5.00;;;;;;;26.51;43.70;95553.56;6154124;23;20201;-88
2023/06/19 07:44:50;;;;;;;7.40;5.28;;;;;;;26.63;43.38;95563.75;6154326;23;20159;-89
2023/06/19 07:47:21;;;;;;;6.15;5.00;;;;;;;26.74;43.27;95558.09;6155107;23;20201;-88
2023/06/19 07:49:48;;;;;;;5.35;4.95;;;;;;;26.93;43.23;95560.03;6154993;23;20159;-88
2023/06/19 07:52:14;;;;;;;6.85;4.72;;;;;;;26.99;42.55;95556.28;6154275;23;20653;-88
2023/06/19 07:54:50;;;;;;;6.68;4.80;;;;;;;26.95;42.89;95558.69;6153290;23;20195;-88
2023/06/19 07:57:23;;;;;;;5.05;4.70;;;;;;;26.85;42.52;95566.72;6152991;23;20159;-88
2023/06/19 07:59:52;;;;;;;5.50;5.00;;;;;;;26.96;42.58;95567.41;6152567;23;20670;-88
2023/06/19 08:02:19;;;;;;;5.03;4.63;;;;;;;27.12;42.28;95568.84;6152024;23;20638;-88
2023/06/19 08:04:49;;;;;;;5.25;4.85;;;;;;;27.10;42.10;95573.63;6152211;23;20181;-88
2023/06/19 08:07:15;;;;;;;5.57;5.07;;;;;;;27.16;41.90;95565.34;6151228;23;20569;-88
2023/06/19 08:09:42;;;;;;;4.97;4.57;;;;;;;27.12;41.83;95563.56;6152139;23;20862;-88
2023/06/19 08:12:13;;;;;;;6.60;5.28;;;;;;;27.10;41.84;95570.97;6152329;23;20175;-87
2023/06/19 08:14:41;;;;;;;5.22;4.82;;;;;;;27.01;42.01;95570.00;6152312;23;20183;-88
2023/06/19 08:17:17;;;;;;;5.95;4.88;;;;;;;27.09;42.24;95569.41;6152280;23;20183;-88
2023/06/19 08:19:43;;;;;;;5.30;4.80;;;;;;;27.32;42.10;95571.28;6153192;23;20170;-88
2023/06/19 08:22:11;;;;;;;6.53;5.10;;;;;;;27.43;42.28;95574.56;6152360;23;20175;-88
2023/06/19 08:24:40;;;;;;;6.38;5.38;;;;;;;27.52;42.13;95570.19;6152696;23;20225;-89
2023/06/19 08:27:11;;;;;;;5.80;5.30;;;;;;;27.66;42.00;95573.00;6152240;23;20178;-88
2023/06/19 08:29:40;;;;;;;5.32;4.82;;;;;;;27.87;40.92;95561.06;6152823;23;20183;-88
2023/06/19 08:32:12;;;;;;;5.85;5.13;;;;;;;27.82;41.37;95563.78;6151963;23;20697;-89
2023/06/19 08:34:39;;;;;;;4.82;4.40;;;;;;;28.07;40.94;95560.00;6152250;23;20190;-88
2023/06/19 08:37:18;;;;;;;5.40;4.90;;;;;;;28.33;40.77;95561.19;6151949;23;20183;-88
2023/06/19 08:39:44;;;;;;;5.38;4.88;;;;;;;28.53;40.25;95550.25;6151721;23;20181;-88
2023/06/19 08:42:11;;;;;;;7.85;5.05;;;;;;;28.56;40.84;95550.75;6151772;23;20175;-88
2023/06/19 08:45:27;;;;;;;;;;;;;;;;;;;;;
2023/06/19 08:50:52;;;;;;;5.72;4.03;;;;;;;29.08;38.74;95557.53;6150461;23;20311;-88
2023/06/19 08:53:25;;;;;;;4.10;3.08;;;;;;;29.32;37.10;95557.34;6142033;23;20246;-89
2023/06/19 08:55:56;;;;;;;3.63;3.30;;;;;;;29.53;36.85;95555.88;6148004;23;20249;-88
2023/06/19 08:58:26;;;;;;;3.42;3.13;;;;;;;29.71;36.90;95559.47;6153398;23;20174;-88
2023/06/19 09:03:37;;;;;;;3.53;3.22;;;;;;;29.60;37.02;95539.56;6151327;23;20205;-89
2023/06/19 09:06:07;;;;;;;3.40;3.20;;;;;;;29.37;36.99;95544.78;6151879;23;20199;-88
2023/06/19 09:08:46;;;;;;;4.25;3.25;;;;;;;29.14;37.22;95543.09;6152131;23;20247;-88
2023/06/19 09:11:24;;;;;;;3.70;3.20;;;;;;;29.03;37.92;95545.19;6152344;23;20177;-88
2023/06/19 09:14:13;;;;;;;5.65;3.50;;;;;;;28.93;38.14;95539.25;6152435;23;20201;-90
2023/06/19 09:16:56;;;;;;;6.28;3.55;;;;;;;28.76;38.88;95537.94;6151984;23;20191;-89
2023/06/19 09:19:24;;;;;;;4.55;3.83;;;;;;;28.74;38.86;95540.09;6152289;23;20174;-88
2023/06/19 09:22:05;;;;;;;4.40;4.00;;;;;;;28.68;39.56;95541.25;6151384;23;20175;-88
2023/06/19 09:24:41;;;;;;;4.70;4.03;;;;;;;28.64;40.08;95542.94;6153868;23;20873;-89
2023/06/19 09:27:13;;;;;;;4.30;4.00;;;;;;;28.62;40.41;95552.25;6152950;23;20704;-88
2023/06/19 09:29:56;;;;;;;4.15;3.85;;;;;;;28.57;40.44;95550.47;6153464;23;20175;-88
2023/06/19 09:32:25;;;;;;;4.57;4.18;;;;;;;28.50;40.75;95547.41;6153960;23;20219;-88
2023/06/19 09:34:54;;;;;;;4.93;4.55;;;;;;;28.52;41.02;95553.97;6153672;23;20205;-87
2023/06/19 09:37:39;;;;;;;4.85;4.55;;;;;;;28.54;41.33;95540.44;6156896;23;20177;-87
2023/06/19 09:40:10;;;;;;;5.30;4.90;;;;;;;28.98;40.65;95539.97;6155457;23;20218;-87
2023/06/19 09:42:42;;;;;;;5.35;4.82;;;;;;;29.16;40.37;95543.59;6154697;23;20178;-88
2023/06/19 09:45:10;;;;;;;5.35;4.95;;;;;;;29.10;40.34;95544.75;6154433;23;20211;-87
2023/06/19 09:47:39;;;;;;;5.20;4.80;;;;;;;28.94;40.39;95540.84;6154108;23;20183;-87
2023/06/19 09:50:08;;;;;;;5.10;4.70;;;;;;;28.75;40.15;95535.59;6152332;23;20175;-87
2023/06/19 09:55:23;;;;;;;5.70;4.70;;;;;;;29.33;39.74;95524.44;6148859;23;20199;-88
2023/06/19 09:58:19;;;;;;;5.53;5.10;;;;;;;29.66;39.29;95538.34;6152528;23;20196;-88
2023/06/19 10:00:50;;;;;;;5.88;4.80;;;;;;;29.88;38.92;95538.41;6153982;23;20170;-88
2023/06/19 10:03:40;;;;;;;5.18;4.72;;;;;;;30.13;38.56;95542.38;6153679;23;20175;-88
2023/06/19 10:06:25;;;;;;;5.78;4.72;;;;;;;30.30;37.38;95534.53;6152689;23;20199;-88
2023/06/19 10:08:52;;;;;;;5.57;5.18;;;;;;;30.34;37.50;95532.06;6152895;23;20174;-88
2023/06/19 10:11:29;;;;;;;8.50;7.28;;;;;;;30.38;37.85;95536.47;6152703;23;20646;-88
2023/06/19 10:14:22;;;;;;;6.72;6.13;;;;;;;30.51;37.50;95526.84;6152463;23;20204;-88
2023/06/19 10:23:05;;;;;;;4.85;4.45;;;;;;;31.11;35.95;95523.72;6080787;23;20356;-88
2023/06/19 10:25:44;;;;;;;4.07;3.70;;;;;;;31.34;35.22;95524.44;6071422;23;20597;-88
2023/06/19 10:31:17;;;;;;;4.88;4.50;;;;;;;31.45;34.69;95518.50;6130821;23;20210;-88
2023/06/19 10:33:48;;;;;;;4.50;4.10;;;;;;;31.38;35.30;95515.50;6160344;23;20181;-83
2023/06/19 10:36:16;;;;;;;4.25;3.95;;;;;;;31.52;34.51;95520.72;6160047;23;20225;-84
2023/06/19 10:38:46;;;;;;;4.32;4.00;;;;;;;31.46;34.75;95512.06;6159936;23;20179;-83
2023/06/19 10:41:16;;;;;;;31.48;28.90;;;;;;;31.59;34.59;95513.03;6129956;23;20754;-83
2023/06/19 10:43:42;;;;;;;6.00;5.50;;;;;;;31.64;34.51;95518.22;6128444;23;20182;-83
2023/06/19 10:46:09;;;;;;;5.20;4.75;;;;;;;31.77;34.28;95514.63;6132516;23;20222;-84
2023/06/19 10:48:35;;;;;;;4.15;3.72;;;;;;;31.85;33.75;95519.19;6131088;23;20175;-85
2023/06/19 10:51:02;;;;;;;4.50;4.20;;;;;;;31.93;33.92;95509.66;6129690;23;20175;-85
2023/06/19 10:53:33;;;;;;;4.18;3.88;;;;;;;31.36;34.25;95508.94;6130748;23;20258;-85
2023/06/19 10:56:03;;;;;;;3.80;3.50;;;;;;;31.51;33.73;95503.97;6133405;23;20211;-84
2023/06/19 10:58:30;;;;;;;4.70;4.30;;;;;;;31.73;34.41;95499.63;6130284;23;20442;-85
2023/06/19 11:00:56;;;;;;;4.25;3.95;;;;;;;31.85;33.68;95505.09;6130427;23;20180;-85
2023/06/19 11:03:23;;;;;;;3.53;3.33;;;;;;;31.86;33.30;95501.34;6122304;23;20236;-89
2023/06/19 11:05:50;;;;;;;3.58;3.38;;;;;;;31.85;32.71;95494.44;6116386;23;20191;-88
2023/06/19 11:08:31;;;;;;;3.70;3.40;;;;;;;31.89;32.78;95493.50;6116432;23;20224;-89
2023/06/19 11:10:58;;;;;;;4.30;3.53;;;;;;;31.93;32.11;95483.78;6118826;23;20160;-89
2023/06/19 11:13:26;;;;;;;3.53;3.33;;;;;;;32.09;32.80;95489.41;6117643;23;20180;-89
2023/06/19 11:15:52;;;;;;;3.78;3.47;;;;;;;31.70;33.03;95492.25;6116686;23;20656;-88
2023/06/19 11:18:27;;;;;;;3.30;3.10;;;;;;;31.87;33.01;95479.72;6119127;23;20536;-89
2023/06/19 11:21:05;;;;;;;15.68;14.35;;;;;;;32.09;32.09;95485.97;6119892;23;20159;-88
2023/06/19 11:23:35;;;;;;;5.18;4.40;;;;;;;32.29;31.86;95477.34;6120661;23;20178;-88
2023/06/19 11:26:14;;;;;;;3.67;3.38;;;;;;;32.28;31.75;95470.44;6121398;23;20195;-88
2023/06/19 11:28:48;;;;;;;3.30;3.00;;;;;;;32.32;31.17;95474.06;6120935;23;20160;-89
2023/06/19 11:31:15;;;;;;;3.53;3.00;;;;;;;32.39;31.67;95474.34;6120786;23;20191;-89
2023/06/19 11:33:57;;;;;;;3.65;3.45;;;;;;;32.55;31.77;95471.94;6121114;23;20175;-89
2023/06/19 11:36:24;;;;;;;3.90;3.50;;;;;;;32.59;31.48;95473.63;6119922;23;20230;-88
2023/06/19 11:38:55;;;;;;;4.47;3.40;;;;;;;32.49;31.64;95458.00;6121974;23;20548;-88
2023/06/19 11:41:32;;;;;;;3.33;3.13;;;;;;;32.45;31.38;95467.72;6149695;23;20171;-89
2023/06/19 11:44:05;;;;;;;3.58;3.20;;;;;;;32.56;31.02;95465.50;6148287;23;20178;-89
2023/06/19 11:46:32;;;;;;;3.30;3.00;;;;;;;32.30;31.84;95462.13;6148145;23;20539;-89
2023/06/19 11:49:19;;;;;;;3.10;2.90;;;;;;;32.20;31.69;95464.03;6149914;23;20175;-88
2023/06/19 11:51:54;;;;;;;3.10;2.90;;;;;;;31.76;32.06;95462.47;6150419;23;20253;-89
2023/06/19 11:54:28;;;;;;;3.20;2.90;;;;;;;31.65;32.26;95461.19;6150508;23;20518;-89
2023/06/19 12:04:32;;;;;;;3.65;3.35;;;;;;;32.52;31.56;95460.00;6060227;23;20206;-89
2023/06/19 12:09:55;;;;;;;3.00;2.80;;;;;;;32.86;30.78;95459.16;6145468;23;20205;-89
2023/06/19 12:12:22;;;;;;;3.58;3.28;;;;;;;32.98;30.80;95455.00;6151813;23;20163;-88
2023/06/19 12:15:05;;;;;;;8.77;7.93;;;;;;;33.08;30.62;95455.41;6150979;23;20804;-88
2023/06/19 12:17:38;;;;;;;7.07;6.43;;;;;;;32.97;30.24;95443.53;6151779;23;20186;-89
2023/06/19 12:20:07;;;;;;;3.00;2.80;;;;;;;33.05;30.61;95448.06;6151156;23;20182;-89
2023/06/19 12:25:18;;;;;;;3.30;3.10;;;;;;;33.17;30.14;95445.47;6129788;23;20234;-89